createdAt,value
2022-10-23T00:03:46.915Z,5.20
2022-10-23T00:09:13.578Z,4.77
2022-10-23T00:14:36.644Z,5.07
2022-10-23T00:19:59.835Z,5.70
2022-10-23T00:25:24.324Z,5.37
2022-10-23T00:30:47.408Z,4.20
2022-10-23T00:36:13.751Z,4.33
2022-10-23T00:41:40.886Z,5.40
2022-10-23T00:47:04.004Z,5.27
2022-10-23T00:52:27.110Z,5.63
2022-10-23T00:57:52.489Z,4.13
2022-10-23T01:03:17.364Z,4.70
2022-10-23T01:08:46.158Z,5.47
2022-10-23T01:14:17.686Z,6.40
2022-10-23T01:19:49.854Z,6.20
2022-10-23T01:25:23.030Z,5.33
2022-10-23T01:30:48.127Z,5.60
2022-10-23T01:36:13.911Z,5.30
2022-10-23T01:41:42.307Z,6.07
2022-10-23T01:47:08.801Z,4.67
2022-10-23T01:52:44.013Z,5.77
2022-10-23T01:58:08.502Z,6.33
2022-10-23T02:03:38.697Z,5.80
2022-10-23T02:09:01.849Z,5.60
2022-10-23T02:14:32.283Z,5.77
2022-10-23T02:20:01.568Z,7.40
2022-10-23T02:25:30.519Z,6.23
2022-10-23T02:30:54.181Z,6.53
2022-10-23T02:36:20.013Z,6.07
2022-10-23T02:41:46.051Z,6.27
2022-10-23T02:47:17.582Z,5.47
2022-10-23T02:52:45.563Z,5.97
2022-10-23T02:58:11.935Z,6.40
2022-10-23T03:03:42.393Z,7.67
2022-10-23T03:09:10.432Z,6.00
2022-10-23T03:14:35.285Z,6.00
2022-10-23T03:19:59.365Z,7.50
2022-10-23T03:25:23.788Z,7.23
2022-10-23T03:30:47.239Z,5.00
2022-10-23T03:36:11.142Z,6.07
2022-10-23T03:41:35.645Z,6.10
2022-10-23T03:46:59.109Z,6.40
2022-10-23T03:57:52.399Z,5.80
2022-10-23T04:03:16.505Z,5.70
2022-10-23T04:08:39.783Z,9.43
2022-10-23T04:14:12.577Z,5.17
2022-10-23T04:19:35.670Z,7.23
2022-10-23T04:24:58.758Z,6.67
2022-10-23T04:30:23.317Z,6.30
2022-10-23T04:35:46.576Z,6.87
2022-10-23T04:41:09.819Z,8.07
2022-10-23T04:46:34.461Z,6.77
2022-10-23T04:51:57.581Z,7.37
2022-10-23T04:57:39.463Z,7.73
2022-10-23T05:03:06.991Z,6.10
2022-10-23T05:08:37.139Z,6.63
2022-10-23T05:14:25.296Z,5.50
2022-10-23T05:19:52.436Z,6.07
2022-10-23T05:25:17.213Z,6.80
2022-10-23T05:30:46.211Z,6.07
2022-10-23T05:36:12.836Z,5.17
2022-10-23T05:41:36.139Z,5.67
2022-10-23T05:46:59.615Z,4.97
2022-10-23T05:52:43.686Z,4.37
2022-10-23T05:58:24.579Z,4.47
2022-10-23T06:04:16.847Z,4.23
2022-10-23T06:09:54.347Z,4.37
2022-10-23T06:15:17.719Z,4.90
2022-10-23T06:20:56.839Z,4.40
2022-10-23T06:26:23.734Z,4.50
2022-10-23T06:32:05.877Z,4.20
2022-10-23T06:37:29.537Z,5.13
2022-10-23T06:43:03.179Z,3.97
2022-10-23T06:48:46.772Z,4.00
2022-10-23T06:54:16.995Z,5.27
2022-10-23T06:59:56.294Z,3.77
2022-10-23T07:05:20.724Z,4.13
2022-10-23T07:10:44.396Z,4.00
2022-10-23T07:16:14.011Z,5.00
2022-10-23T07:21:37.433Z,3.30
2022-10-23T07:27:26.802Z,3.83
2022-10-23T07:32:58.332Z,3.50
2022-10-23T07:38:27.946Z,3.50
2022-10-23T07:43:51.647Z,3.27
2022-10-23T07:49:16.483Z,3.63
2022-10-23T07:54:40.017Z,3.40
2022-10-23T08:00:10.350Z,4.37
2022-10-23T08:05:37.989Z,3.40
2022-10-23T08:11:01.626Z,3.10
2022-10-23T08:16:30.412Z,3.10
2022-10-23T08:22:00.782Z,3.50
2022-10-23T08:27:24.037Z,3.23
2022-10-23T08:32:47.215Z,3.03
2022-10-23T08:38:12.898Z,2.90
2022-10-23T08:43:43.298Z,3.27
2022-10-23T08:49:44.405Z,3.83
2022-10-23T08:55:17.103Z,3.70
2022-10-23T09:00:40.213Z,2.67
2022-10-23T09:06:10.613Z,3.90
2022-10-23T09:11:39.208Z,3.20
2022-10-23T09:17:10.697Z,3.27
2022-10-23T09:22:33.890Z,3.00
2022-10-23T09:28:01.451Z,3.00
2022-10-23T09:33:28.137Z,3.77
2022-10-23T09:38:53.905Z,3.10
2022-10-23T09:44:20.883Z,3.27
2022-10-23T09:49:49.632Z,3.20
2022-10-23T09:55:21.022Z,3.03
2022-10-23T10:00:52.235Z,2.27
2022-10-23T10:06:33.575Z,2.37
2022-10-23T10:11:59.236Z,2.93
2022-10-23T10:17:36.511Z,2.63
2022-10-23T10:23:05.388Z,2.57
2022-10-23T10:28:33.121Z,2.60
2022-10-23T10:34:08.125Z,2.37
2022-10-23T10:39:40.182Z,3.60
2022-10-23T10:45:15.753Z,2.53
2022-10-23T10:50:45.098Z,3.17
2022-10-23T10:56:27.148Z,3.07
2022-10-23T11:01:54.743Z,2.77
2022-10-23T11:07:23.303Z,2.00
2022-10-23T11:12:47.484Z,2.43
2022-10-23T11:18:16.327Z,2.57
2022-10-23T11:24:26.808Z,3.33
2022-10-23T11:30:14.919Z,1.97
2022-10-23T11:35:45.415Z,2.53
2022-10-23T11:41:22.280Z,2.30
2022-10-23T11:47:03.586Z,2.37
2022-10-23T11:52:26.750Z,2.77
2022-10-23T11:58:21.254Z,2.40
2022-10-23T12:03:54.220Z,2.33
2022-10-23T12:09:37.417Z,2.33
2022-10-23T12:15:20.010Z,2.50
2022-10-23T12:20:50.491Z,3.43
2022-10-23T12:26:39.688Z,2.50
2022-10-23T12:32:07.726Z,2.03
2022-10-23T12:37:54.607Z,2.65
2022-10-23T12:43:25.075Z,1.85
2022-10-23T12:48:50.407Z,1.98
2022-10-23T12:54:19.995Z,2.13
2022-10-23T12:59:45.951Z,1.80
2022-10-23T13:05:13.246Z,1.73
2022-10-23T13:10:37.926Z,1.85
2022-10-23T13:16:15.069Z,1.67
2022-10-23T13:21:38.247Z,2.50
2022-10-23T13:27:02.672Z,2.53
2022-10-23T13:32:27.755Z,1.85
2022-10-23T13:37:51.632Z,1.65
2022-10-23T13:43:18.909Z,1.92
2022-10-23T13:48:42.056Z,2.47
2022-10-23T13:54:05.437Z,2.28
2022-10-23T13:59:29.889Z,1.63
2022-10-23T14:04:53.584Z,1.85
2022-10-23T14:10:16.687Z,2.30
2022-10-23T14:15:41.112Z,1.98
2022-10-23T14:21:05.450Z,1.70
2022-10-23T14:26:30.303Z,1.63
2022-10-23T14:31:55.072Z,1.95
2022-10-23T14:37:19.488Z,1.92
2022-10-23T14:42:42.608Z,1.92
2022-10-23T14:48:07.335Z,2.17
2022-10-23T14:53:30.433Z,2.55
2022-10-23T14:58:53.505Z,1.70
2022-10-23T15:04:18.013Z,2.88
2022-10-23T15:09:41.047Z,2.15
2022-10-23T15:15:07.535Z,1.98
2022-10-23T15:20:32.092Z,2.33
2022-10-23T15:25:58.966Z,1.92
2022-10-23T15:31:41.906Z,2.17
2022-10-23T15:37:06.462Z,2.47
2022-10-23T15:42:29.613Z,2.38
2022-10-23T15:47:52.727Z,2.33
2022-10-23T15:53:17.152Z,2.40
2022-10-23T15:58:40.350Z,2.17
2022-10-23T16:04:03.372Z,2.22
2022-10-23T16:09:27.820Z,1.90
2022-10-23T16:14:51.605Z,2.40
2022-10-23T16:20:14.779Z,2.92
2022-10-23T16:25:39.498Z,2.20
2022-10-23T16:31:03.320Z,2.72
2022-10-23T16:36:26.580Z,2.72
2022-10-23T16:42:03.213Z,2.33
2022-10-23T16:47:52.386Z,3.08
2022-10-23T16:53:15.473Z,2.75
2022-10-23T16:58:41.830Z,2.13
2022-10-23T17:04:07.118Z,2.35
2022-10-23T17:09:31.309Z,2.80
2022-10-23T17:14:55.718Z,2.60
2022-10-23T17:20:18.759Z,1.67
2022-10-23T17:25:42.058Z,3.95
2022-10-23T17:31:12.294Z,2.13
2022-10-23T17:36:38.692Z,1.63
2022-10-23T17:42:01.874Z,2.20
2022-10-23T17:47:26.414Z,2.08
2022-10-23T17:52:49.474Z,2.53
2022-10-23T17:58:12.572Z,1.90
2022-10-23T18:03:38.156Z,2.87
2022-10-23T18:09:01.980Z,1.98
2022-10-23T18:14:27.299Z,2.38
2022-10-23T18:19:57.319Z,1.83
2022-10-23T18:25:22.677Z,1.90
2022-10-23T18:30:47.241Z,2.38
2022-10-23T18:36:16.914Z,2.40
2022-10-23T18:41:41.604Z,3.42
2022-10-23T18:47:05.034Z,2.40
2022-10-23T18:52:29.580Z,2.03
2022-10-23T18:57:52.626Z,2.28
2022-10-23T19:03:16.160Z,1.70
2022-10-23T19:08:41.991Z,2.15
2022-10-23T19:14:05.655Z,2.15
2022-10-23T19:19:33.132Z,2.58
2022-10-23T19:25:00.746Z,2.70
2022-10-23T19:30:24.270Z,2.77
2022-10-23T19:35:47.364Z,2.90
2022-10-23T19:41:11.955Z,2.77
2022-10-23T19:46:36.435Z,2.70
2022-10-23T19:51:59.499Z,2.80
2022-10-23T19:57:23.842Z,2.07
2022-10-23T20:02:48.226Z,2.90
2022-10-23T20:08:13.239Z,2.40
2022-10-23T20:13:37.661Z,1.80
2022-10-23T20:19:23.474Z,1.70
2022-10-23T20:24:46.502Z,1.40
2022-10-23T20:30:12.246Z,1.63
2022-10-23T20:35:41.516Z,1.80
2022-10-23T20:41:05.815Z,1.20
2022-10-23T20:46:30.248Z,1.37
2022-10-23T20:51:55.642Z,1.40
2022-10-23T20:57:21.278Z,1.43
2022-10-23T21:02:48.567Z,1.77
2022-10-23T21:08:14.311Z,1.83
2022-10-23T21:13:37.397Z,3.37
2022-10-23T21:19:02.712Z,1.80
2022-10-23T21:24:25.745Z,1.80
2022-10-23T21:29:48.828Z,1.57
2022-10-23T21:35:13.258Z,1.30
2022-10-23T21:40:36.297Z,1.50
2022-10-23T21:46:04.933Z,2.27
2022-10-23T21:51:32.331Z,1.47
2022-10-23T21:56:55.433Z,1.33
2022-10-23T22:02:18.633Z,2.00
2022-10-23T22:07:47.256Z,1.73
2022-10-23T22:13:10.261Z,2.23
2022-10-23T22:18:33.346Z,2.30
2022-10-23T22:23:59.540Z,1.90
2022-10-23T22:29:24.931Z,2.67
2022-10-23T22:34:52.755Z,1.50
2022-10-23T22:40:17.970Z,2.27
2022-10-23T22:45:40.977Z,1.30
2022-10-23T22:51:07.215Z,1.23
2022-10-23T22:56:33.367Z,1.40
2022-10-23T23:01:56.437Z,2.60
2022-10-23T23:07:19.538Z,1.57
2022-10-23T23:12:43.893Z,1.17
2022-10-23T23:18:06.925Z,1.27
2022-10-23T23:23:30.047Z,1.17
2022-10-23T23:28:55.316Z,1.57
2022-10-23T23:34:18.326Z,0.70
2022-10-23T23:39:41.359Z,0.70
2022-10-23T23:45:14.234Z,1.17
2022-10-23T23:50:37.937Z,0.97
2022-10-23T23:56:00.936Z,0.70
